Smit Orleans — CFN5087 — position and weather

sailwx.info

Track history (hours):
 
Tides and Currents Weather Stations Pressure Air Temp Water Temp Dewpoint Dewpoint Depression Visibility Wind Speed Wind Dir Waves Ship Positions

Smit Orleans

Last reported at 2014-Dec-21 15:33 UTC. Time now 2014-Dec-21 16:31 UTC.
Position N 49°18' W 123°04'.

Length 29 m; draft 5.1 m.

Type: . MMSI: 316012721.

Date/timePositionNaut miles runAvg speedWind from/ knotsBaromVisibWave heightAir tempDewpointWater temp
2014-Dec-21 15:33N 49°18' W 123°04'2 2.2
2014-Dec-21 14:34N 49°18' W 123°07'1 1.4
2014-Dec-21 13:33N 49°18' W 123°05'1 1.1
2014-Dec-21 12:33N 49°17' W 123°04'0 0.0
2014-Dec-21 11:33N 49°17' W 123°04'0 0.0
2014-Dec-21 10:33N 49°17' W 123°04'0 0.0
2014-Dec-21 09:33N 49°17' W 123°04'0 0.0
2014-Dec-21 08:33N 49°17' W 123°04'3 2.8
2014-Dec-21 07:33N 49°19' W 123°08'1 1.2
2014-Dec-21 06:33N 49°18' W 123°06'2 1.6
2014-Dec-21 05:33N 49°17' W 123°04'0 0.0
2014-Dec-21 04:34N 49°17' W 123°04'0 0.0
2014-Dec-21 03:33N 49°17' W 123°04'0 0.0
2014-Dec-21 02:33N 49°17' W 123°04'0 0.0
2014-Dec-21 01:33N 49°17' W 123°04'0 0.0
2014-Dec-21 00:33N 49°17' W 123°04'0 0.0
2014-Dec-20 23:33N 49°17' W 123°04'0 0.0
2014-Dec-20 22:33N 49°17' W 123°04'0 0.0
2014-Dec-20 21:33N 49°17' W 123°04'0 0.0
2014-Dec-20 20:33N 49°17' W 123°04'0 0.0
2014-Dec-20 19:33N 49°17' W 123°04'0 0.0
2014-Dec-20 18:33N 49°17' W 123°04'0 0.0
2014-Dec-20 17:33N 49°17' W 123°04'0 0.0
2014-Dec-20 16:33N 49°17' W 123°04'0 0.0
2014-Dec-20 15:33N 49°17' W 123°04'1 0.5
2014-Dec-20 14:33N 49°17' W 123°04'1 1.3
2014-Dec-20 13:34N 49°18' W 123°06'2 1.7
2014-Dec-20 12:33N 49°17' W 123°04'0 0.0
2014-Dec-20 11:33N 49°17' W 123°04'0 0.0
2014-Dec-20 10:33N 49°17' W 123°04'0 0.0
2014-Dec-20 09:33N 49°17' W 123°04'0 0.0
2014-Dec-20 08:34N 49°17' W 123°04'0 0.0
2014-Dec-20 07:33N 49°17' W 123°04'0 0.0
2014-Dec-20 06:33N 49°17' W 123°04'0 0.0
2014-Dec-20 05:33N 49°17' W 123°04'0 0.0
2014-Dec-20 04:34N 49°17' W 123°04'0 0.0
2014-Dec-20 03:33N 49°17' W 123°04'0 0.0
2014-Dec-20 02:33N 49°17' W 123°04'0 0.0
2014-Dec-20 01:33N 49°17' W 123°04'0 0.0
2014-Dec-20 00:33N 49°17' W 123°04'0 0.0
2014-Dec-19 23:33N 49°17' W 123°04'0 0.0
2014-Dec-19 22:33N 49°17' W 123°04'0 0.0
2014-Dec-19 21:33N 49°17' W 123°04'0 0.0
2014-Dec-19 20:33N 49°17' W 123°04'0 0.0
2014-Dec-19 19:33N 49°17' W 123°04'0 0.0
2014-Dec-19 18:33N 49°17' W 123°04'0 0.0
2014-Dec-19 17:34N 49°17' W 123°04'0 0.0
2014-Dec-19 16:33N 49°17' W 123°04'0 0.0
2014-Dec-19 15:33N 49°17' W 123°04'0 0.0
2014-Dec-19 14:33N 49°17' W 123°04'0 0.0
2014-Dec-19 13:33N 49°17' W 123°04'0 0.0
2014-Dec-19 12:33N 49°17' W 123°04'0 0.0
2014-Dec-19 11:33N 49°17' W 123°04'0 0.1
2014-Dec-19 10:34N 49°18' W 123°04'0 0.1
2014-Dec-19 09:33N 49°17' W 123°04'0 0.2
2014-Dec-19 08:33N 49°18' W 123°03'8 7.5
2014-Dec-19 07:33N 49°17' W 122°52'1 1.3
2014-Dec-19 06:33N 49°18' W 122°54'6 6.3
2014-Dec-19 05:33N 49°18' W 123°03'0 0.4
2014-Dec-19 04:33N 49°17' W 123°04'0 0.0
2014-Dec-19 03:33N 49°17' W 123°04'0 0.0
2014-Dec-19 02:33N 49°17' W 123°04'0 0.0
2014-Dec-19 01:33N 49°17' W 123°04'0 0.0
2014-Dec-19 00:33N 49°17' W 123°04'0 0.0
2014-Dec-18 23:33N 49°17' W 123°04'0 0.0
2014-Dec-18 22:33N 49°17' W 123°04'0 0.0
2014-Dec-18 21:33N 49°17' W 123°04'0 0.0
2014-Dec-18 20:33N 49°17' W 123°04'0 0.0
2014-Dec-18 19:33N 49°17' W 123°04'0 0.0
2014-Dec-18 18:34N 49°17' W 123°04'4 4.3
2014-Dec-18 17:33N 49°17' W 122°57'0 0.1
2014-Dec-18 16:33N 49°18' W 122°57'4 4.4
2014-Dec-18 15:34N 49°17' W 123°04'0 0.0
2014-Dec-18 14:33N 49°17' W 123°04'0 0.0
2014-Dec-18 13:33N 49°17' W 123°04'0 0.0
2014-Dec-18 12:34N 49°17' W 123°04'0 0.0
2014-Dec-18 11:33N 49°17' W 123°04'3 2.8
2014-Dec-18 10:33N 49°19' W 123°08'0 0.4
2014-Dec-18 09:33N 49°18' W 123°07'2 2.4
2014-Dec-18 08:33N 49°17' W 123°04'0 0.0
2014-Dec-18 07:34N 49°17' W 123°04'1 0.5
2014-Dec-18 06:33N 49°18' W 123°04'1 1.2
2014-Dec-18 05:33N 49°18' W 123°03'1 0.9
2014-Dec-18 04:33N 49°18' W 123°04'1 0.6
2014-Dec-18 03:33N 49°17' W 123°04'0 0.0
2014-Dec-18 02:33N 49°17' W 123°04'0 0.0
2014-Dec-18 01:33N 49°17' W 123°04'0 0.0
2014-Dec-18 00:34N 49°17' W 123°04'8 7.7
2014-Dec-17 23:33N 49°17' W 122°52'0 0.1
2014-Dec-17 22:33N 49°17' W 122°52'5 4.6
2014-Dec-17 21:33N 49°18' W 122°59'3 3.1
2014-Dec-17 20:34N 49°17' W 123°04'0 0.1
2014-Dec-17 19:33N 49°17' W 123°04'0 0.0
2014-Dec-17 18:33N 49°17' W 123°04'0 0.0
2014-Dec-17 17:33N 49°17' W 123°04'0 0.0
2014-Dec-17 16:33N 49°17' W 123°04'0 0.0
2014-Dec-17 15:33N 49°17' W 123°04'0 0.0
2014-Dec-17 14:33N 49°17' W 123°04'0 0.0
2014-Dec-17 13:33N 49°17' W 123°04'0 0.0
2014-Dec-17 12:33N 49°17' W 123°04'0 0.0
2014-Dec-17 11:33N 49°17' W 123°04'0 0.0
2014-Dec-17 10:33N 49°17' W 123°04'0 0.0
2014-Dec-17 09:33N 49°17' W 123°04'0 0.0
2014-Dec-17 08:33N 49°17' W 123°04'0 0.0
2014-Dec-17 07:33N 49°17' W 123°04'1 1.1
2014-Dec-17 06:34N 49°18' W 123°05'1 1.1
2014-Dec-17 05:33N 49°17' W 123°04'0 0.0
2014-Dec-17 04:33N 49°17' W 123°04'0 0.0
2014-Dec-17 03:33N 49°17' W 123°04'0 0.0
2014-Dec-17 02:33N 49°17' W 123°04'0 0.0
2014-Dec-17 01:33N 49°17' W 123°04'0 0.0
2014-Dec-17 00:33N 49°17' W 123°04'0 0.0
2014-Dec-16 23:33N 49°17' W 123°04'0 0.0
2014-Dec-16 22:33N 49°17' W 123°04'0 0.0
2014-Dec-16 21:33N 49°17' W 123°04'0 0.0
2014-Dec-16 20:33N 49°17' W 123°04'0 0.0
2014-Dec-16 19:33N 49°17' W 123°04'0 0.0
2014-Dec-16 18:33N 49°17' W 123°04'0 0.0
2014-Dec-16 17:33N 49°17' W 123°04'0 0.0
2014-Dec-16 16:33N 49°17' W 123°04'0 0.0
2014-Dec-16 15:33N 49°17' W 123°04'1 0.8
2014-Dec-16 14:33N 49°18' W 123°03'1 1.0
2014-Dec-16 13:33N 49°18' W 123°05'1 0.7
2014-Dec-16 12:33N 49°17' W 123°04'0 0.0
2014-Dec-16 11:33N 49°17' W 123°04'0 0.0
2014-Dec-16 10:33N 49°17' W 123°04'5 4.8
2014-Dec-16 09:33N 49°18' W 122°56'3 2.9
2014-Dec-16 08:33N 49°17' W 122°52'3 3.0
2014-Dec-16 07:33N 49°18' W 122°56'5 4.7
2014-Dec-16 06:33N 49°17' W 123°04'0 0.0
2014-Dec-16 05:33N 49°17' W 123°04'0 0.0
2014-Dec-16 04:33N 49°17' W 123°04'0 0.0
2014-Dec-16 03:32N 49°17' W 123°04'0 0.0
2014-Dec-16 02:33N 49°17' W 123°04'0 0.0
2014-Dec-16 01:24N 49°17' W 123°04'0 0.0
2014-Dec-16 00:31N 49°17' W 123°04'0 0.0
2014-Dec-15 23:33N 49°17' W 123°04'0 0.0
2014-Dec-15 22:34N 49°17' W 123°04'0 0.1
2014-Dec-15 21:34N 49°17' W 123°04'1 0.9
2014-Dec-15 20:33N 49°18' W 123°04'1 0.9
2014-Dec-15 19:33N 49°17' W 123°04'0 0.0
2014-Dec-15 18:33N 49°17' W 123°04'0 0.0
2014-Dec-15 17:33N 49°17' W 123°04'0 0.0
2014-Dec-15 16:33N 49°17' W 123°04'0 0.0
2014-Dec-15 15:33N 49°17' W 123°04'0 0.0
2014-Dec-15 14:33N 49°17' W 123°04'1 0.6
2014-Dec-15 13:33N 49°17' W 123°05'1 0.6
2014-Dec-15 12:33N 49°18' W 123°05'1 1.2
2014-Dec-15 11:33N 49°17' W 123°04'0 0.0
2014-Dec-15 10:33N 49°17' W 123°04'0 0.0
2014-Dec-15 09:33N 49°17' W 123°04'0 0.0
2014-Dec-15 08:33N 49°17' W 123°04'0 0.0
2014-Dec-15 07:33N 49°17' W 123°04'1 0.7
2014-Dec-15 06:33N 49°17' W 123°05'0 0.1
2014-Dec-15 05:33N 49°17' W 123°05'2 1.5
2014-Dec-15 04:34N 49°18' W 123°02'0 0.3
2014-Dec-15 03:33N 49°18' W 123°02'1 1.0
2014-Dec-15 02:33N 49°17' W 123°04'0 0.0
2014-Dec-15 01:33N 49°17' W 123°04'0 0.0
2014-Dec-15 00:33N 49°17' W 123°04'0 0.0
2014-Dec-14 23:33N 49°17' W 123°04'0 0.0
2014-Dec-14 22:33N 49°17' W 123°04'0 0.4
2014-Dec-14 21:34N 49°18' W 123°04'1 0.8
2014-Dec-14 20:33N 49°18' W 123°06'0 0.4
2014-Dec-14 19:34N 49°17' W 123°06'1 0.6
2014-Dec-14 18:33N 49°18' W 123°06'2 1.8
2014-Dec-14 17:33N 49°17' W 123°04'0 0.0
2014-Dec-14 16:33N 49°17' W 123°04'0 0.0
2014-Dec-14 15:33N 49°17' W 123°04'0 0.0
2014-Dec-14 14:33N 49°17' W 123°04'0 0.0
2014-Dec-14 13:33N 49°17' W 123°04'0 0.0
2014-Dec-14 12:33N 49°17' W 123°04'0 0.0
2014-Dec-14 11:33N 49°17' W 123°04'0 0.0
2014-Dec-14 10:33N 49°17' W 123°04'0 0.0
2014-Dec-14 09:33N 49°17' W 123°04'0 0.0
2014-Dec-14 08:33N 49°17' W 123°04'0 0.0
2014-Dec-14 07:33N 49°17' W 123°04'0 0.0
2014-Dec-14 06:33N 49°17' W 123°04'0 0.0
2014-Dec-14 05:33N 49°17' W 123°04'0 0.0
2014-Dec-14 04:33N 49°17' W 123°04'0 0.0
2014-Dec-14 03:33N 49°17' W 123°04'0 0.0
2014-Dec-14 02:33N 49°17' W 123°04'0 0.0
2014-Dec-14 01:33N 49°17' W 123°04'2 2.2
2014-Dec-14 00:33N 49°18' W 123°07'2 2.2
2014-Dec-13 23:33N 49°17' W 123°04'0 0.0
2014-Dec-13 22:33N 49°17' W 123°04'1 0.8
2014-Dec-13 21:33N 49°18' W 123°03'0 0.0
2014-Dec-13 20:33N 49°18' W 123°03'1 1.3
2014-Dec-13 19:33N 49°18' W 123°05'1 1.2
2014-Dec-13 18:33N 49°17' W 123°04'0 0.0
2014-Dec-13 17:33N 49°17' W 123°04'0 0.0
2014-Dec-13 16:33N 49°17' W 123°04'0 0.0
2014-Dec-13 15:33N 49°17' W 123°04'0 0.0
2014-Dec-13 14:33N 49°17' W 123°04'0 0.0
2014-Dec-13 13:33N 49°17' W 123°04'0 0.0
2014-Dec-13 12:33N 49°17' W 123°04'1 1.2
2014-Dec-13 11:33N 49°18' W 123°02'2 1.8
2014-Dec-13 10:33N 49°18' W 123°05'1 0.7
2014-Dec-13 09:33N 49°17' W 123°04'0 0.0
2014-Dec-13 08:33N 49°17' W 123°04'0 0.0
2014-Dec-13 07:33N 49°17' W 123°04'0 0.0
2014-Dec-13 06:33N 49°17' W 123°04'1 1.1
2014-Dec-13 05:34N 49°18' W 123°02'3 3.1
2014-Dec-13 04:34N 49°18' W 123°06'1 1.0
2014-Dec-13 03:33N 49°18' W 123°05'0 0.3
2014-Dec-13 02:33N 49°17' W 123°05'1 0.9
2014-Dec-13 01:33N 49°17' W 123°04'0 0.0
2014-Dec-13 00:33N 49°17' W 123°04'0 0.0
2014-Dec-12 23:33N 49°17' W 123°04'0 0.0
2014-Dec-12 22:33N 49°17' W 123°04'0 0.0
2014-Dec-12 21:33N 49°17' W 123°04'0 0.0
2014-Dec-12 20:33N 49°17' W 123°04'0 0.0
2014-Dec-12 19:33N 49°17' W 123°04'0 0.0
2014-Dec-12 18:33N 49°17' W 123°04'0 0.0
2014-Dec-12 17:33N 49°17' W 123°04'0 0.0
2014-Dec-12 16:33N 49°17' W 123°04'0 0.0
2014-Dec-12 15:33N 49°17' W 123°04'0 0.0
2014-Dec-12 14:33N 49°17' W 123°04'0 0.0
2014-Dec-12 13:33N 49°17' W 123°04'0 0.0
2014-Dec-12 12:33N 49°17' W 123°04'0 0.0
2014-Dec-12 11:33N 49°17' W 123°04'0 0.0
2014-Dec-12 10:33N 49°17' W 123°04'4 4.4
2014-Dec-12 09:33N 49°19' W 123°10'7 7.0
2014-Dec-12 08:33N 49°24' W 123°18'5 1.0
2014-Dec-12 03:33N 49°28' W 123°17'8 8.5
2014-Dec-12 02:33N 49°20' W 123°17'9 9.0
2014-Dec-12 01:33N 49°17' W 123°04'0 0.0
2014-Dec-12 00:33N 49°17' W 123°04'0 0.0
2014-Dec-11 23:34N 49°17' W 123°04'2 2.1
2014-Dec-11 22:33N 49°18' W 123°07'1 0.9
2014-Dec-11 21:33N 49°17' W 123°06'1 1.5
2014-Dec-11 20:33N 49°17' W 123°04'0 0.0
2014-Dec-11 19:33N 49°17' W 123°04'0 0.0
2014-Dec-11 18:33N 49°17' W 123°04'0 0.0
2014-Dec-11 17:33N 49°17' W 123°04'0 0.0
2014-Dec-11 16:33N 49°17' W 123°04'0 0.0
2014-Dec-11 15:33N 49°17' W 123°04'  
Track history (hours):
 
Tides and Currents Weather Stations Pressure Air Temp Water Temp Dewpoint Dewpoint Depression Visibility Wind Speed Wind Dir Waves Ship Positions

Smit Orleans

Last reported at 2014-Dec-21 15:33 UTC. Time now 2014-Dec-21 16:31 UTC.
Position N 49°18' W 123°04'.

Length 29 m; draft 5.1 m.

Type: . MMSI: 316012721.

Date/timePositionNaut miles runAvg speedWind from/ knotsBaromVisibWave heightAir tempDewpointWater temp
2014-Dec-21 15:33N 49°18' W 123°04'2 2.2
2014-Dec-21 14:34N 49°18' W 123°07'1 1.4
2014-Dec-21 13:33N 49°18' W 123°05'1 1.1
2014-Dec-21 12:33N 49°17' W 123°04'0 0.0
2014-Dec-21 11:33N 49°17' W 123°04'0 0.0
2014-Dec-21 10:33N 49°17' W 123°04'0 0.0
2014-Dec-21 09:33N 49°17' W 123°04'0 0.0
2014-Dec-21 08:33N 49°17' W 123°04'3 2.8
2014-Dec-21 07:33N 49°19' W 123°08'1 1.2
2014-Dec-21 06:33N 49°18' W 123°06'2 1.6
2014-Dec-21 05:33N 49°17' W 123°04'0 0.0
2014-Dec-21 04:34N 49°17' W 123°04'0 0.0
2014-Dec-21 03:33N 49°17' W 123°04'0 0.0
2014-Dec-21 02:33N 49°17' W 123°04'0 0.0
2014-Dec-21 01:33N 49°17' W 123°04'0 0.0
2014-Dec-21 00:33N 49°17' W 123°04'0 0.0
2014-Dec-20 23:33N 49°17' W 123°04'0 0.0
2014-Dec-20 22:33N 49°17' W 123°04'0 0.0
2014-Dec-20 21:33N 49°17' W 123°04'0 0.0
2014-Dec-20 20:33N 49°17' W 123°04'0 0.0
2014-Dec-20 19:33N 49°17' W 123°04'0 0.0
2014-Dec-20 18:33N 49°17' W 123°04'0 0.0
2014-Dec-20 17:33N 49°17' W 123°04'0 0.0
2014-Dec-20 16:33N 49°17' W 123°04'0 0.0
2014-Dec-20 15:33N 49°17' W 123°04'1 0.5
2014-Dec-20 14:33N 49°17' W 123°04'1 1.3
2014-Dec-20 13:34N 49°18' W 123°06'2 1.7
2014-Dec-20 12:33N 49°17' W 123°04'0 0.0
2014-Dec-20 11:33N 49°17' W 123°04'0 0.0
2014-Dec-20 10:33N 49°17' W 123°04'0 0.0
2014-Dec-20 09:33N 49°17' W 123°04'0 0.0
2014-Dec-20 08:34N 49°17' W 123°04'0 0.0
2014-Dec-20 07:33N 49°17' W 123°04'0 0.0
2014-Dec-20 06:33N 49°17' W 123°04'0 0.0
2014-Dec-20 05:33N 49°17' W 123°04'0 0.0
2014-Dec-20 04:34N 49°17' W 123°04'0 0.0
2014-Dec-20 03:33N 49°17' W 123°04'0 0.0
2014-Dec-20 02:33N 49°17' W 123°04'0 0.0
2014-Dec-20 01:33N 49°17' W 123°04'0 0.0
2014-Dec-20 00:33N 49°17' W 123°04'0 0.0
2014-Dec-19 23:33N 49°17' W 123°04'0 0.0
2014-Dec-19 22:33N 49°17' W 123°04'0 0.0
2014-Dec-19 21:33N 49°17' W 123°04'0 0.0
2014-Dec-19 20:33N 49°17' W 123°04'0 0.0
2014-Dec-19 19:33N 49°17' W 123°04'0 0.0
2014-Dec-19 18:33N 49°17' W 123°04'0 0.0
2014-Dec-19 17:34N 49°17' W 123°04'0 0.0
2014-Dec-19 16:33N 49°17' W 123°04'0 0.0
2014-Dec-19 15:33N 49°17' W 123°04'0 0.0
2014-Dec-19 14:33N 49°17' W 123°04'0 0.0
2014-Dec-19 13:33N 49°17' W 123°04'0 0.0
2014-Dec-19 12:33N 49°17' W 123°04'0 0.0
2014-Dec-19 11:33N 49°17' W 123°04'0 0.1
2014-Dec-19 10:34N 49°18' W 123°04'0 0.1
2014-Dec-19 09:33N 49°17' W 123°04'0 0.2
2014-Dec-19 08:33N 49°18' W 123°03'8 7.5
2014-Dec-19 07:33N 49°17' W 122°52'1 1.3
2014-Dec-19 06:33N 49°18' W 122°54'6 6.3
2014-Dec-19 05:33N 49°18' W 123°03'0 0.4
2014-Dec-19 04:33N 49°17' W 123°04'0 0.0
2014-Dec-19 03:33N 49°17' W 123°04'0 0.0
2014-Dec-19 02:33N 49°17' W 123°04'0 0.0
2014-Dec-19 01:33N 49°17' W 123°04'0 0.0
2014-Dec-19 00:33N 49°17' W 123°04'0 0.0
2014-Dec-18 23:33N 49°17' W 123°04'0 0.0
2014-Dec-18 22:33N 49°17' W 123°04'0 0.0
2014-Dec-18 21:33N 49°17' W 123°04'0 0.0
2014-Dec-18 20:33N 49°17' W 123°04'0 0.0
2014-Dec-18 19:33N 49°17' W 123°04'0 0.0
2014-Dec-18 18:34N 49°17' W 123°04'4 4.3
2014-Dec-18 17:33N 49°17' W 122°57'0 0.1
2014-Dec-18 16:33N 49°18' W 122°57'4 4.4
2014-Dec-18 15:34N 49°17' W 123°04'0 0.0
2014-Dec-18 14:33N 49°17' W 123°04'0 0.0
2014-Dec-18 13:33N 49°17' W 123°04'0 0.0
2014-Dec-18 12:34N 49°17' W 123°04'0 0.0
2014-Dec-18 11:33N 49°17' W 123°04'3 2.8
2014-Dec-18 10:33N 49°19' W 123°08'0 0.4
2014-Dec-18 09:33N 49°18' W 123°07'2 2.4
2014-Dec-18 08:33N 49°17' W 123°04'0 0.0
2014-Dec-18 07:34N 49°17' W 123°04'1 0.5
2014-Dec-18 06:33N 49°18' W 123°04'1 1.2
2014-Dec-18 05:33N 49°18' W 123°03'1 0.9
2014-Dec-18 04:33N 49°18' W 123°04'1 0.6
2014-Dec-18 03:33N 49°17' W 123°04'0 0.0
2014-Dec-18 02:33N 49°17' W 123°04'0 0.0
2014-Dec-18 01:33N 49°17' W 123°04'0 0.0
2014-Dec-18 00:34N 49°17' W 123°04'8 7.7
2014-Dec-17 23:33N 49°17' W 122°52'0 0.1
2014-Dec-17 22:33N 49°17' W 122°52'5 4.6
2014-Dec-17 21:33N 49°18' W 122°59'3 3.1
2014-Dec-17 20:34N 49°17' W 123°04'0 0.1
2014-Dec-17 19:33N 49°17' W 123°04'0 0.0
2014-Dec-17 18:33N 49°17' W 123°04'0 0.0
2014-Dec-17 17:33N 49°17' W 123°04'0 0.0
2014-Dec-17 16:33N 49°17' W 123°04'0 0.0
2014-Dec-17 15:33N 49°17' W 123°04'0 0.0
2014-Dec-17 14:33N 49°17' W 123°04'0 0.0
2014-Dec-17 13:33N 49°17' W 123°04'0 0.0
2014-Dec-17 12:33N 49°17' W 123°04'0 0.0
2014-Dec-17 11:33N 49°17' W 123°04'0 0.0
2014-Dec-17 10:33N 49°17' W 123°04'0 0.0
2014-Dec-17 09:33N 49°17' W 123°04'0 0.0
2014-Dec-17 08:33N 49°17' W 123°04'0 0.0
2014-Dec-17 07:33N 49°17' W 123°04'1 1.1
2014-Dec-17 06:34N 49°18' W 123°05'1 1.1
2014-Dec-17 05:33N 49°17' W 123°04'0 0.0
2014-Dec-17 04:33N 49°17' W 123°04'0 0.0
2014-Dec-17 03:33N 49°17' W 123°04'0 0.0
2014-Dec-17 02:33N 49°17' W 123°04'0 0.0
2014-Dec-17 01:33N 49°17' W 123°04'0 0.0
2014-Dec-17 00:33N 49°17' W 123°04'0 0.0
2014-Dec-16 23:33N 49°17' W 123°04'0 0.0
2014-Dec-16 22:33N 49°17' W 123°04'0 0.0
2014-Dec-16 21:33N 49°17' W 123°04'0 0.0
2014-Dec-16 20:33N 49°17' W 123°04'0 0.0
2014-Dec-16 19:33N 49°17' W 123°04'0 0.0
2014-Dec-16 18:33N 49°17' W 123°04'0 0.0
2014-Dec-16 17:33N 49°17' W 123°04'0 0.0
2014-Dec-16 16:33N 49°17' W 123°04'0 0.0
2014-Dec-16 15:33N 49°17' W 123°04'1 0.8
2014-Dec-16 14:33N 49°18' W 123°03'1 1.0
2014-Dec-16 13:33N 49°18' W 123°05'1 0.7
2014-Dec-16 12:33N 49°17' W 123°04'0 0.0
2014-Dec-16 11:33N 49°17' W 123°04'0 0.0
2014-Dec-16 10:33N 49°17' W 123°04'5 4.8
2014-Dec-16 09:33N 49°18' W 122°56'3 2.9
2014-Dec-16 08:33N 49°17' W 122°52'3 3.0
2014-Dec-16 07:33N 49°18' W 122°56'5 4.7
2014-Dec-16 06:33N 49°17' W 123°04'0 0.0
2014-Dec-16 05:33N 49°17' W 123°04'0 0.0
2014-Dec-16 04:33N 49°17' W 123°04'0 0.0
2014-Dec-16 03:32N 49°17' W 123°04'0 0.0
2014-Dec-16 02:33N 49°17' W 123°04'0 0.0
2014-Dec-16 01:24N 49°17' W 123°04'0 0.0
2014-Dec-16 00:31N 49°17' W 123°04'0 0.0
2014-Dec-15 23:33N 49°17' W 123°04'0 0.0
2014-Dec-15 22:34N 49°17' W 123°04'0 0.1
2014-Dec-15 21:34N 49°17' W 123°04'1 0.9
2014-Dec-15 20:33N 49°18' W 123°04'1 0.9
2014-Dec-15 19:33N 49°17' W 123°04'0 0.0
2014-Dec-15 18:33N 49°17' W 123°04'0 0.0
2014-Dec-15 17:33N 49°17' W 123°04'0 0.0
2014-Dec-15 16:33N 49°17' W 123°04'0 0.0
2014-Dec-15 15:33N 49°17' W 123°04'0 0.0
2014-Dec-15 14:33N 49°17' W 123°04'1 0.6
2014-Dec-15 13:33N 49°17' W 123°05'1 0.6
2014-Dec-15 12:33N 49°18' W 123°05'1 1.2
2014-Dec-15 11:33N 49°17' W 123°04'0 0.0
2014-Dec-15 10:33N 49°17' W 123°04'0 0.0
2014-Dec-15 09:33N 49°17' W 123°04'0 0.0
2014-Dec-15 08:33N 49°17' W 123°04'0 0.0
2014-Dec-15 07:33N 49°17' W 123°04'1 0.7
2014-Dec-15 06:33N 49°17' W 123°05'0 0.1
2014-Dec-15 05:33N 49°17' W 123°05'2 1.5
2014-Dec-15 04:34N 49°18' W 123°02'0 0.3
2014-Dec-15 03:33N 49°18' W 123°02'1 1.0
2014-Dec-15 02:33N 49°17' W 123°04'0 0.0
2014-Dec-15 01:33N 49°17' W 123°04'0 0.0
2014-Dec-15 00:33N 49°17' W 123°04'0 0.0
2014-Dec-14 23:33N 49°17' W 123°04'0 0.0
2014-Dec-14 22:33N 49°17' W 123°04'0 0.4
2014-Dec-14 21:34N 49°18' W 123°04'1 0.8
2014-Dec-14 20:33N 49°18' W 123°06'0 0.4
2014-Dec-14 19:34N 49°17' W 123°06'1 0.6
2014-Dec-14 18:33N 49°18' W 123°06'2 1.8
2014-Dec-14 17:33N 49°17' W 123°04'0 0.0
2014-Dec-14 16:33N 49°17' W 123°04'0 0.0
2014-Dec-14 15:33N 49°17' W 123°04'0 0.0
2014-Dec-14 14:33N 49°17' W 123°04'0 0.0
2014-Dec-14 13:33N 49°17' W 123°04'0 0.0
2014-Dec-14 12:33N 49°17' W 123°04'0 0.0
2014-Dec-14 11:33N 49°17' W 123°04'0 0.0
2014-Dec-14 10:33N 49°17' W 123°04'0 0.0
2014-Dec-14 09:33N 49°17' W 123°04'0 0.0
2014-Dec-14 08:33N 49°17' W 123°04'0 0.0
2014-Dec-14 07:33N 49°17' W 123°04'0 0.0
2014-Dec-14 06:33N 49°17' W 123°04'0 0.0
2014-Dec-14 05:33N 49°17' W 123°04'0 0.0
2014-Dec-14 04:33N 49°17' W 123°04'0 0.0
2014-Dec-14 03:33N 49°17' W 123°04'0 0.0
2014-Dec-14 02:33N 49°17' W 123°04'0 0.0
2014-Dec-14 01:33N 49°17' W 123°04'2 2.2
2014-Dec-14 00:33N 49°18' W 123°07'2 2.2
2014-Dec-13 23:33N 49°17' W 123°04'0 0.0
2014-Dec-13 22:33N 49°17' W 123°04'1 0.8
2014-Dec-13 21:33N 49°18' W 123°03'0 0.0
2014-Dec-13 20:33N 49°18' W 123°03'1 1.3
2014-Dec-13 19:33N 49°18' W 123°05'1 1.2
2014-Dec-13 18:33N 49°17' W 123°04'0 0.0
2014-Dec-13 17:33N 49°17' W 123°04'0 0.0
2014-Dec-13 16:33N 49°17' W 123°04'0 0.0
2014-Dec-13 15:33N 49°17' W 123°04'0 0.0
2014-Dec-13 14:33N 49°17' W 123°04'0 0.0
2014-Dec-13 13:33N 49°17' W 123°04'0 0.0
2014-Dec-13 12:33N 49°17' W 123°04'1 1.2
2014-Dec-13 11:33N 49°18' W 123°02'2 1.8
2014-Dec-13 10:33N 49°18' W 123°05'1 0.7
2014-Dec-13 09:33N 49°17' W 123°04'0 0.0
2014-Dec-13 08:33N 49°17' W 123°04'0 0.0
2014-Dec-13 07:33N 49°17' W 123°04'0 0.0
2014-Dec-13 06:33N 49°17' W 123°04'1 1.1
2014-Dec-13 05:34N 49°18' W 123°02'3 3.1
2014-Dec-13 04:34N 49°18' W 123°06'1 1.0
2014-Dec-13 03:33N 49°18' W 123°05'0 0.3
2014-Dec-13 02:33N 49°17' W 123°05'1 0.9
2014-Dec-13 01:33N 49°17' W 123°04'0 0.0
2014-Dec-13 00:33N 49°17' W 123°04'0 0.0
2014-Dec-12 23:33N 49°17' W 123°04'0 0.0
2014-Dec-12 22:33N 49°17' W 123°04'0 0.0
2014-Dec-12 21:33N 49°17' W 123°04'0 0.0
2014-Dec-12 20:33N 49°17' W 123°04'0 0.0
2014-Dec-12 19:33N 49°17' W 123°04'0 0.0
2014-Dec-12 18:33N 49°17' W 123°04'0 0.0
2014-Dec-12 17:33N 49°17' W 123°04'0 0.0
2014-Dec-12 16:33N 49°17' W 123°04'0 0.0
2014-Dec-12 15:33N 49°17' W 123°04'0 0.0
2014-Dec-12 14:33N 49°17' W 123°04'0 0.0
2014-Dec-12 13:33N 49°17' W 123°04'0 0.0
2014-Dec-12 12:33N 49°17' W 123°04'0 0.0
2014-Dec-12 11:33N 49°17' W 123°04'0 0.0
2014-Dec-12 10:33N 49°17' W 123°04'4 4.4
2014-Dec-12 09:33N 49°19' W 123°10'7 7.0
2014-Dec-12 08:33N 49°24' W 123°18'5 1.0
2014-Dec-12 03:33N 49°28' W 123°17'8 8.5
2014-Dec-12 02:33N 49°20' W 123°17'9 9.0
2014-Dec-12 01:33N 49°17' W 123°04'0 0.0
2014-Dec-12 00:33N 49°17' W 123°04'0 0.0
2014-Dec-11 23:34N 49°17' W 123°04'2 2.1
2014-Dec-11 22:33N 49°18' W 123°07'1 0.9
2014-Dec-11 21:33N 49°17' W 123°06'1 1.5
2014-Dec-11 20:33N 49°17' W 123°04'0 0.0
2014-Dec-11 19:33N 49°17' W 123°04'0 0.0
2014-Dec-11 18:33N 49°17' W 123°04'0 0.0
2014-Dec-11 17:33N 49°17' W 123°04'0 0.0
2014-Dec-11 16:33N 49°17' W 123°04'0 0.0
2014-Dec-11 15:33N 49°17' W 123°04'  

Dump ship's entire track history